EW7659 Weather Reports


Display with metric or nautical units.
time (UTC)temp
F
wind
direction
speed
MPH
gust
MPH
rain 1hr
in
rain 24hr
in
rain mn
in
humidity
%
barometer
mb
20210726013205 74 319 0.0 1.0 0.00 0.00 0.00 93 1006.9
20210726012701 74 319 0.0 1.0 0.00 0.00 0.00 93 1006.6
20210726012202 74 319 0.0 1.0 0.00 0.00 0.00 93 1006.6
20210726011712 74 319 0.0 1.0 0.00 0.00 0.00 93 1006.6
20210726011202 74 319 0.0 2.0 0.00 0.00 0.00 93 1006.6
20210726010700 74 319 0.0 2.0 0.00 0.00 0.00 93 1006.7
20210726010201 74 319 1.0 2.0 0.00 0.00 0.00 93 1006.8
20210726005702 74 319 0.0 2.0 0.00 0.00 0.00 93 1006.8
20210726005201 74 319 0.0 1.0 0.00 0.00 0.00 93 1006.8
20210726004703 73 319 0.0 2.0 0.00 0.00 0.00 93 1006.9
20210726004202 73 319 0.0 2.0 0.00 0.00 0.00 93 1007.0
20210726003703 73 319 0.0 2.0 0.00 0.00 0.00 93 1007.2
20210726003204 73 319 0.0 3.0 0.00 0.00 0.00 93 1007.2
20210726002702 73 319 1.0 3.0 0.00 0.00 0.00 93 1007.2
20210726002201 73 319 0.0 2.0 0.00 0.00 0.00 93 1007.4
20210726001704 73 319 0.0 2.0 0.00 0.00 0.00 93 1007.5
20210726001229 73 319 1.0 0.0 0.00 0.00 0.00 93 1007.9
20210726001224 73 319 0.0 2.0 0.00 0.00 0.00 93 1007.6
20210726001211 73 319 0.0 2.0 0.00 0.00 0.00 93 1007.9
20210726001200 73 319 0.0 1.0 0.00 0.00 0.00 93 1007.7
20210725212729 83 34 6.0 22.0 0.00 0.00 0.00 74 1009.3
20210725212229 86 51 4.0 15.0 0.00 0.00 0.00 68 1009.3
20210725211729 90 5 4.0 12.0 0.00 0.00 0.00 60 1009.2
20210725211229 94 28 3.0 12.0 0.00 0.00 0.00 49 1009.1
20210725210729 96 48 2.0 6.0 0.00 0.00 0.00 58 1008.8
20210725210229 95 182 3.0 8.0 0.00 0.00 0.00 58 1008.2
20210725205729 95 178 3.0 8.0 0.00 0.00 0.00 56 1007.9
20210725205231 95 213 2.0 6.0 0.00 0.00 0.00 58 1008.0
20210725204729 96 180 2.0 6.0 0.00 0.00 0.00 56 1008.4
20210725204230 96 177 2.0 6.0 0.00 0.00 0.00 57 1008.5
20210725203730 96 211 2.0 9.0 0.00 0.00 0.00 55 1008.5
20210725203230 96 33 2.0 9.0 0.00 0.00 0.00 56 1008.6
20210725202729 96 203 1.0 5.0 0.00 0.00 0.00 58 1008.7
20210725202229 95 219 1.0 7.0 0.00 0.00 0.00 59 1008.7
20210725201729 95 17 2.0 7.0 0.00 0.00 0.00 63 1008.7
20210725201229 94 180 3.0 7.0 0.00 0.00 0.00 62 1008.7
20210725200729 93 153 3.0 7.0 0.00 0.00 0.00 63 1008.6
20210725200230 92 131 3.0 6.0 0.00 0.00 0.00 65 1008.5
20210725195730 92 175 2.0 6.0 0.00 0.00 0.00 66 1008.6
20210725195230 92 188 1.0 8.0 0.00 0.00 0.00 67 1008.5
20210725194730 92 155 2.0 8.0 0.00 0.00 0.00 66 1008.4
20210725194230 93 139 2.0 6.0 0.00 0.00 0.00 63 1008.5
20210725193731 93 155 1.0 5.0 0.00 0.00 0.00 61 1008.6
20210725193229 93 186 1.0 4.0 0.00 0.00 0.00 61 1008.8
20210725192729 93 34 1.0 6.0 0.00 0.00 0.00 60 1008.9
20210725192230 94 171 1.0 6.0 0.00 0.00 0.00 60 1009.0
20210725191730 94 193 1.0 5.0 0.00 0.00 0.00 59 1009.0
20210725191230 94 155 1.0 5.0 0.00 0.00 0.00 59 1009.1
20210725190730 94 66 2.0 5.0 0.00 0.00 0.00 58 1009.0
20210725190229 94 174 1.0 5.0 0.00 0.00 0.00 57 1009.0
20210725185730 94 164 1.0 4.0 0.00 0.00 0.00 61 1009.1
20210725185231 94 156 1.0 5.0 0.00 0.00 0.00 57 1009.2
20210725184730 94 156 1.0 5.0 0.00 0.00 0.00 58 1009.3
20210725184228 95 184 1.0 5.0 0.00 0.00 0.00 55 1009.2
20210725183729 96 177 1.0 5.0 0.00 0.00 0.00 53 1009.3
20210725183229 96 54 1.0 2.0 0.00 0.00 0.00 56 1009.2
20210725182729 96 52 1.0 4.0 0.00 0.00 0.00 55 1009.3
20210725182230 96 51 1.0 5.0 0.00 0.00 0.00 54 1009.4
20210725181731 96 46 2.0 5.0 0.00 0.00 0.00 54 1009.4
20210725181229 95 41 1.0 4.0 0.00 0.00 0.00 55 1009.5
20210725180730 95 188 1.0 4.0 0.00 0.00 0.00 60 1009.6
20210725180230 95 164 1.0 4.0 0.00 0.00 0.00 56 1009.7
20210725175729 95 157 1.0 4.0 0.00 0.00 0.00 60 1009.8
20210725175230 95 24 2.0 5.0 0.00 0.00 0.00 56 1009.9
20210725174730 94 160 2.0 5.0 0.00 0.00 0.00 58 1010.0
20210725174230 94 43 1.0 5.0 0.00 0.00 0.00 59 1010.1
20210725173731 94 51 1.0 3.0 0.00 0.00 0.00 60 1010.1
20210725173230 94 0 1.0 3.0 0.00 0.00 0.00 60 1010.2
20210725172730 94 99 1.0 3.0 0.00 0.00 0.00 59 1010.4
20210725172230 94 44 2.0 4.0 0.00 0.00 0.00 58 1010.4
20210725171731 93 38 1.0 4.0 0.00 0.00 0.00 60 1010.5
20210725171229 93 331 1.0 4.0 0.00 0.00 0.00 61 1010.5
20210725170730 93 332 1.0 4.0 0.00 0.00 0.00 61 1010.6
20210725170230 93 43 1.0 4.0 0.00 0.00 0.00 60 1010.6
20210725165731 93 26 1.0 3.0 0.00 0.00 0.00 62 1010.7
20210725165230 93 355 1.0 3.0 0.00 0.00 0.00 63 1010.8
20210725164729 92 34 0.0 2.0 0.00 0.00 0.00 64 1010.8
20210725164229 92 350 0.0 2.0 0.00 0.00 0.00 62 1010.7
20210725163730 92 350 1.0 3.0 0.00 0.00 0.00 65 1010.8
20210725163228 91 337 2.0 5.0 0.00 0.00 0.00 65 1010.9
20210725162729 91 42 1.0 5.0 0.00 0.00 0.00 65 1010.8
20210725162228 91 342 1.0 4.0 0.00 0.00 0.00 65 1010.8
20210725161729 91 43 1.0 4.0 0.00 0.00 0.00 67 1010.7
20210725161229 90 39 1.0 3.0 0.00 0.00 0.00 66 1010.8
20210725160730 90 347 1.0 4.0 0.00 0.00 0.00 67 1010.7
20210725160219 90 229 1.0 4.0 0.00 0.00 0.00 66 1010.6
20210725155713 89 172 1.0 5.0 0.00 0.00 0.00 66 1010.6
20210725155207 89 172 1.0 5.0 0.00 0.00 0.00 67 1010.6
20210725154707 89 225 1.0 3.0 0.00 0.00 0.00 68 1010.7
20210725154208 89 248 1.0 3.0 0.00 0.00 0.00 68 1010.6
20210725153707 89 293 1.0 3.0 0.00 0.00 0.00 71 1010.5
20210725153207 88 345 1.0 3.0 0.00 0.00 0.00 69 1010.5
20210725152707 88 278 1.0 2.0 0.00 0.00 0.00 71 1010.5
20210725152207 88 186 1.0 2.0 0.00 0.00 0.00 72 1010.4
20210725151707 87 186 1.0 2.0 0.00 0.00 0.00 72 1010.4
20210725151207 87 186 1.0 3.0 0.00 0.00 0.00 71 1010.4
20210725150707 87 298 1.0 3.0 0.00 0.00 0.00 74 1010.4
20210725150207 86 279 0.0 3.0 0.00 0.00 0.00 73 1010.3
20210725145708 86 194 0.0 2.0 0.00 0.00 0.00 75 1010.3
20210725145208 85 263 1.0 3.0 0.00 0.00 0.00 74 1010.3
20210725144707 85 173 1.0 3.0 0.00 0.00 0.00 77 1010.2
20210725144207 85 172 1.0 5.0 0.00 0.00 0.00 78 1010.2
20210725143707 85 172 1.0 5.0 0.00 0.00 0.00 77 1010.2
20210725143207 84 209 1.0 3.0 0.00 0.00 0.00 78 1010.1
20210725142707 84 270 1.0 3.0 0.00 0.00 0.00 78 1010.2
20210725142208 84 267 1.0 5.0 0.00 0.00 0.00 80 1010.2
20210725141707 83 274 2.0 5.0 0.00 0.00 0.00 81 1010.2
20210725141207 83 171 2.0 5.0 0.00 0.00 0.00 81 1010.1
20210725140708 83 140 2.0 5.0 0.00 0.00 0.00 83 1010.1
20210725140208 82 166 2.0 5.0 0.00 0.00 0.00 83 1010.1
20210725135707 82 168 2.0 5.0 0.00 0.00 0.00 84 1010.0
20210725135207 82 182 2.0 5.0 0.00 0.00 0.00 84 1010.1
20210725134709 82 179 2.0 5.0 0.00 0.00 0.00 84 1010.0
20210725134207 81 149 2.0 5.0 0.00 0.00 0.00 85 1010.0
20210725133706 81 202 2.0 5.0 0.00 0.00 0.00 86 1010.0
20210725133205 81 170 1.0 5.0 0.00 0.00 0.00 86 1010.0
20210725132704 81 223 1.0 4.0 0.00 0.00 0.00 87 1010.1
20210725132203 80 180 1.0 3.0 0.00 0.00 0.00 87 1010.2
20210725131705 80 181 1.0 4.0 0.00 0.00 0.00 87 1010.2
20210725131203 80 184 1.0 4.0 0.00 0.00 0.00 87 1010.1
20210725130704 80 163 1.0 2.0 0.00 0.00 0.00 87 1010.1
20210725130204 80 163 1.0 2.0 0.00 0.00 0.00 87 1010.1
20210725125705 80 163 1.0 2.0 0.00 0.00 0.00 88 1010.2
20210725125204 80 163 1.0 4.0 0.00 0.00 0.00 89 1010.2
20210725124702 80 163 1.0 4.0 0.00 0.00 0.00 88 1010.1
20210725124203 79 163 2.0 6.0 0.00 0.00 0.00 89 1010.0
20210725123702 79 164 2.0 6.0 0.00 0.00 0.00 89 1010.0
20210725123202 79 175 2.0 4.0 0.00 0.00 0.00 89 1010.1
20210725122702 79 175 1.0 3.0 0.00 0.00 0.00 90 1010.1
20210725122202 79 202 1.0 3.0 0.00 0.00 0.00 90 1010.1
20210725121700 78 180 0.0 2.0 0.00 0.00 0.00 90 1010.1
20210725121201 78 180 0.0 1.0 0.00 0.00 0.00 90 1010.0
20210725120702 78 180 0.0 2.0 0.00 0.00 0.00 91 1009.9
20210725120201 78 180 0.0 2.0 0.00 0.00 0.00 91 1009.9
20210725115701 78 180 0.0 2.0 0.00 0.00 0.00 91 1009.9
20210725115202 78 180 0.0 2.0 0.00 0.00 0.00 91 1009.9
20210725114702 78 180 0.0 1.0 0.00 0.00 0.00 91 1009.9
20210725114201 78 180 0.0 2.0 0.00 0.00 0.00 91 1010.0
20210725113700 78 180 0.0 2.0 0.00 0.00 0.00 91 1009.9
20210725113201 78 180 0.0 0.0 0.00 0.00 0.00 91 1009.9
20210725112701 78 180 0.0 1.0 0.00 0.00 0.00 91 1009.9
20210725112202 78 180 0.0 1.0 0.00 0.00 0.00 92 1009.9
20210725111702 78 180 0.0 2.0 0.00 0.00 0.00 92 1009.8
20210725111201 78 180 0.0 2.0 0.00 0.00 0.00 92 1009.8
20210725110701 78 180 0.0 2.0 0.00 0.00 0.00 92 1009.8
20210725110201 78 180 0.0 2.0 0.00 0.00 0.00 92 1009.7
20210725105702 78 180 0.0 1.0 0.00 0.00 0.00 92 1009.8
20210725105203 78 180 0.0 0.0 0.00 0.00 0.00 91 1009.8
20210725104701 78 180 0.0 1.0 0.00 0.00 0.00 92 1009.8
20210725104201 78 180 0.0 2.0 0.00 0.00 0.00 92 1009.8
20210725103700 78 180 0.0 2.0 0.00 0.00 0.00 92 1009.6
20210725103202 78 180 0.0 1.0 0.00 0.00 0.00 92 1009.6
20210725102704 78 180 0.0 0.0 0.00 0.00 0.00 91 1009.6
20210725102201 78 180 0.0 0.0 0.00 0.00 0.00 91 1009.6
20210725101700 78 180 0.0 0.0 0.00 0.00 0.00 91 1009.7
20210725101154 78 180 0.0 0.0 0.00 0.00 0.00 91 1009.7
20210725100648 78 180 0.0 0.0 0.00 0.00 0.00 91 1009.7
20210725100144 78 180 0.0 0.0 0.00 0.00 0.00 90 1009.7
20210725095639 79 180 0.0 0.0 0.00 0.00 0.00 90 1009.7
20210725095139 79 180 0.0 0.0 0.00 0.00 0.00 90 1009.7
20210725094638 79 180 0.0 1.0 0.00 0.00 0.00 90 1009.6
20210725094136 79 180 0.0 1.0 0.00 0.00 0.00 90 1009.6
20210725093638 79 180 0.0 2.0 0.00 0.00 0.00 90 1009.5
20210725093137 79 180 0.0 2.0 0.00 0.00 0.00 90 1009.5
20210725092636 79 180 0.0 2.0 0.00 0.00 0.00 90 1009.5
20210725092133 79 180 0.0 0.0 0.00 0.00 0.00 90 1009.6
20210725091633 79 180 0.0 1.0 0.00 0.00 0.00 90 1009.5
20210725091134 79 180 0.0 1.0 0.00 0.00 0.00 90 1009.6
20210725090632 79 180 0.0 2.0 0.00 0.00 0.00 90 1009.6
20210725090131 79 180 1.0 2.0 0.00 0.00 0.00 91 1009.5
20210725085630 79 180 0.0 2.0 0.00 0.00 0.00 91 1009.4
20210725085131 79 180 0.0 1.0 0.00 0.00 0.00 91 1009.5
20210725084629 79 180 0.0 1.0 0.00 0.00 0.00 91 1009.5
20210725084129 79 180 0.0 0.0 0.00 0.00 0.00 90 1009.6
20210725083629 80 180 0.0 0.0 0.00 0.00 0.00 90 1009.5
20210725083129 80 180 0.0 0.0 0.00 0.00 0.00 90 1009.6
20210725082622 80 180 0.0 0.0 0.00 0.00 0.00 90 1009.6
20210725082117 80 180 0.0 0.0 0.00 0.00 0.00 90 1009.5
20210725081610 80 180 0.0 0.0 0.00 0.00 0.00 89 1009.5
20210725081112 80 180 0.0 0.0 0.00 0.00 0.00 89 1009.5
20210725080609 80 180 0.0 0.0 0.00 0.00 0.00 89 1009.5
20210725080108 80 180 0.0 0.0 0.00 0.00 0.00 89 1009.4
20210725075609 80 180 0.0 0.0 0.00 0.00 0.00 89 1009.5
20210725075109 80 180 0.0 0.0 0.00 0.00 0.00 88 1009.5
20210725074609 81 180 0.0 0.0 0.00 0.00 0.00 88 1009.5
20210725074110 81 180 0.0 0.0 0.00 0.00 0.00 88 1009.5
20210725073609 81 180 0.0 0.0 0.00 0.00 0.00 87 1009.5
20210725073109 81 180 0.0 0.0 0.00 0.00 0.00 87 1009.4
20210725072606 81 180 0.0 0.0 0.00 0.00 0.00 87 1009.4
20210725072105 82 180 0.0 2.0 0.00 0.00 0.00 87 1009.4
20210725071602 82 180 0.0 2.0 0.00 0.00 0.00 87 1009.5
20210725071104 82 180 0.0 1.0 0.00 0.00 0.00 87 1009.5
20210725070603 82 180 0.0 1.0 0.00 0.00 0.00 86 1009.5
20210725070102 82 180 0.0 2.0 0.00 0.00 0.00 86 1009.5
20210725065601 82 180 0.0 2.0 0.00 0.00 0.00 86 1009.5
20210725065101 82 180 0.0 1.0 0.00 0.00 0.00 86 1009.6
20210725064602 82 180 0.0 2.0 0.00 0.00 0.00 86 1009.5
20210725064101 82 180 0.0 2.0 0.00 0.00 0.00 85 1009.6
20210725063601 83 180 0.0 2.0 0.00 0.00 0.00 85 1009.5
20210725063101 83 180 0.0 2.0 0.00 0.00 0.00 85 1009.5
20210725062601 83 180 0.0 2.0 0.00 0.00 0.00 85 1009.6
20210725062101 83 180 0.0 2.0 0.00 0.00 0.00 85 1009.5
20210725061603 83 180 0.0 1.0 0.00 0.00 0.00 84 1009.6
20210725061101 83 180 0.0 3.0 0.00 0.00 0.00 84 1009.6
20210725060603 83 180 1.0 3.0 0.00 0.00 0.00 84 1009.5
20210725060103 83 184 1.0 4.0 0.00 0.00 0.00 84 1009.5
20210725055602 83 184 1.0 5.0 0.00 0.00 0.00 84 1009.5
20210725055101 83 187 1.0 5.0 0.00 0.00 0.00 84 1009.5
20210725054602 83 186 1.0 6.0 0.00 0.00 0.00 83 1009.5
20210725054101 84 171 1.0 6.0 0.00 0.00 0.00 83 1009.4
20210725053602 84 180 1.0 4.0 0.00 0.00 0.00 83 1009.5
20210725053102 84 182 2.0 3.0 0.00 0.00 0.00 83 1009.5
20210725052602 84 183 2.0 4.0 0.00 0.00 0.00 83 1009.4
20210725052102 84 184 1.0 5.0 0.00 0.00 0.00 83 1009.5
20210725051558 84 165 1.0 5.0 0.00 0.00 0.00 82 1009.4
20210725051058 84 176 1.0 3.0 0.00 0.00 0.00 82 1009.5
20210725050558 84 146 1.0 5.0 0.00 0.00 0.00 82 1009.5
20210725050059 84 145 1.0 5.0 0.00 0.00 0.00 82 1009.5
20210725045559 84 175 1.0 4.0 0.00 0.00 0.00 82 1009.4
20210725045058 84 174 0.0 3.0 0.00 0.00 0.00 82 1009.5
20210725044556 84 175 1.0 4.0 0.00 0.00 0.00 82 1009.6
20210725044055 84 163 1.0 4.0 0.00 0.00 0.00 83 1009.5
20210725043555 84 163 0.0 2.0 0.00 0.00 0.00 83 1009.4
20210725043054 84 164 0.0 2.0 0.00 0.00 0.00 83 1009.5
20210725042554 84 164 0.0 1.0 0.00 0.00 0.00 82 1009.5
20210725042054 85 164 0.0 1.0 0.00 0.00 0.00 82 1009.5
20210725041554 85 164 0.0 1.0 0.00 0.00 0.00 81 1009.5
20210725041054 85 164 0.0 1.0 0.00 0.00 0.00 80 1009.6
20210725040554 85 164 0.0 1.0 0.00 0.00 0.00 80 1009.5
20210725040054 85 164 0.0 1.0 0.00 0.00 0.00 80 1009.5
20210725035555 85 164 0.0 2.0 0.00 0.00 0.00 80 1009.5
20210725035054 85 164 1.0 2.0 0.00 0.00 0.00 79 1009.5
20210725034552 86 164 1.0 2.0 0.00 0.00 0.00 79 1009.4
20210725034053 86 163 0.0 2.0 0.00 0.00 0.00 79 1009.4
20210725033553 86 163 0.0 2.0 0.00 0.00 0.00 79 1009.6
20210725033052 86 163 0.0 2.0 0.00 0.00 0.00 79 1009.6
20210725032553 86 163 0.0 2.0 0.00 0.00 0.00 78 1009.5
20210725032053 86 163 0.0 2.0 0.00 0.00 0.00 78 1009.4
20210725031550 86 163 0.0 2.0 0.00 0.00 0.00 78 1009.4
20210725031051 86 163 0.0 2.0 0.00 0.00 0.00 78 1009.4
20210725030551 86 163 0.0 2.0 0.00 0.00 0.00 78 1009.3
20210725030050 87 163 0.0 2.0 0.00 0.00 0.00 78 1009.2
20210725025550 87 163 1.0 2.0 0.00 0.00 0.00 77 1009.2
20210725025050 87 163 1.0 2.0 0.00 0.00 0.00 77 1009.2
20210725024548 87 163 0.0 2.0 0.00 0.00 0.00 77 1009.1
20210725024048 87 146 0.0 2.0 0.00 0.00 0.00 76 1009.1
20210725023548 87 135 1.0 2.0 0.00 0.00 0.00 76 1009.1
20210725023047 87 133 0.0 2.0 0.00 0.00 0.00 76 1009.0
20210725022548 87 127 0.0 1.0 0.00 0.00 0.00 76 1009.0
20210725022044 87 127 0.0 1.0 0.00 0.00 0.00 75 1009.0
20210725021544 87 165 0.0 2.0 0.00 0.00 0.00 75 1008.9
20210725021045 88 165 0.0 2.0 0.00 0.00 0.00 75 1008.9
20210725020545 88 165 0.0 2.0 0.00 0.00 0.00 74 1008.9
20210725020043 88 165 0.0 2.0 0.00 0.00 0.00 74 1008.9
20210725015544 88 165 0.0 2.0 0.00 0.00 0.00 73 1008.9
20210725015045 88 145 0.0 1.0 0.00 0.00 0.00 73 1008.8
20210725014544 89 145 0.0 1.0 0.00 0.00 0.00 73 1008.8
20210725014044 89 145 0.0 2.0 0.00 0.00 0.00 72 1008.7